sensor_id;sensor_type;location;lat;lon;timestamp;pressure;altitude;pressure_sealevel;temperature;humidity
48622;BME280;34421;48.944;9.460;2023-12-22T00:00:08;97179.16;;;7.18;93.52
48622;BME280;34421;48.944;9.460;2023-12-22T00:02:33;97172.09;;;7.12;92.54
48622;BME280;34421;48.944;9.460;2023-12-22T00:04:58;97138.69;;;7.11;92.89
48622;BME280;34421;48.944;9.460;2023-12-22T00:07:24;97097.25;;;7.23;92.89
48622;BME280;34421;48.944;9.460;2023-12-22T00:09:49;97102.91;;;7.26;92.79
48622;BME280;34421;48.944;9.460;2023-12-22T00:12:14;97113.84;;;7.30;92.94
48622;BME280;34421;48.944;9.460;2023-12-22T00:14:40;97115.81;;;7.35;92.40
48622;BME280;34421;48.944;9.460;2023-12-22T00:17:06;97132.66;;;7.40;92.39
48622;BME280;34421;48.944;9.460;2023-12-22T00:19:32;97180.47;;;7.27;90.14
48622;BME280;34421;48.944;9.460;2023-12-22T00:21:57;97145.84;;;7.10;89.52
48622;BME280;34421;48.944;9.460;2023-12-22T00:24:23;97181.47;;;6.89;90.16
48622;BME280;34421;48.944;9.460;2023-12-22T00:26:48;97169.88;;;6.65;90.11
48622;BME280;34421;48.944;9.460;2023-12-22T00:29:14;97213.88;;;6.59;91.13
48622;BME280;34421;48.944;9.460;2023-12-22T00:31:39;97217.28;;;6.67;91.83
48622;BME280;34421;48.944;9.460;2023-12-22T00:34:04;97206.28;;;6.70;91.57
48622;BME280;34421;48.944;9.460;2023-12-22T00:36:30;97237.63;;;6.66;90.60
48622;BME280;34421;48.944;9.460;2023-12-22T00:38:55;97210.00;;;6.62;89.43
48622;BME280;34421;48.944;9.460;2023-12-22T00:41:21;97241.19;;;6.53;88.79
48622;BME280;34421;48.944;9.460;2023-12-22T00:43:46;97253.03;;;6.44;87.73
48622;BME280;34421;48.944;9.460;2023-12-22T00:46:12;97269.38;;;6.34;86.70
48622;BME280;34421;48.944;9.460;2023-12-22T00:48:38;97262.94;;;6.24;87.07
48622;BME280;34421;48.944;9.460;2023-12-22T00:51:05;97248.72;;;6.18;86.68
48622;BME280;34421;48.944;9.460;2023-12-22T00:53:32;97228.03;;;6.08;87.16
48622;BME280;34421;48.944;9.460;2023-12-22T00:55:57;97234.97;;;6.03;86.51
48622;BME280;34421;48.944;9.460;2023-12-22T00:58:22;97242.53;;;5.99;86.80
48622;BME280;34421;48.944;9.460;2023-12-22T01:00:47;97249.66;;;5.92;86.41
48622;BME280;34421;48.944;9.460;2023-12-22T01:03:13;97255.75;;;5.86;87.27
48622;BME280;34421;48.944;9.460;2023-12-22T01:05:38;97254.94;;;5.92;87.43
48622;BME280;34421;48.944;9.460;2023-12-22T01:08:04;97230.72;;;6.02;87.44
48622;BME280;34421;48.944;9.460;2023-12-22T01:10:29;97231.50;;;6.09;87.15
48622;BME280;34421;48.944;9.460;2023-12-22T01:12:54;97237.16;;;6.12;87.77
48622;BME280;34421;48.944;9.460;2023-12-22T01:15:20;97226.78;;;6.18;87.87
48622;BME280;34421;48.944;9.460;2023-12-22T01:17:45;97229.59;;;6.23;87.75
48622;BME280;34421;48.944;9.460;2023-12-22T01:20:10;97225.91;;;6.24;87.45
48622;BME280;34421;48.944;9.460;2023-12-22T01:22:36;97213.91;;;6.28;87.94
48622;BME280;34421;48.944;9.460;2023-12-22T01:25:04;97203.06;;;6.36;87.19
48622;BME280;34421;48.944;9.460;2023-12-22T01:27:30;97215.00;;;6.45;87.62
48622;BME280;34421;48.944;9.460;2023-12-22T01:29:55;97224.50;;;6.53;87.53
48622;BME280;34421;48.944;9.460;2023-12-22T01:32:21;97223.09;;;6.50;86.85
48622;BME280;34421;48.944;9.460;2023-12-22T01:34:46;97223.66;;;6.59;87.49
48622;BME280;34421;48.944;9.460;2023-12-22T01:37:11;97231.91;;;6.69;87.17
48622;BME280;34421;48.944;9.460;2023-12-22T01:39:37;97237.84;;;6.65;86.56
48622;BME280;34421;48.944;9.460;2023-12-22T01:42:02;97236.44;;;6.62;86.51
48622;BME280;34421;48.944;9.460;2023-12-22T01:44:28;97223.56;;;6.72;86.42
48622;BME280;34421;48.944;9.460;2023-12-22T01:46:53;97215.81;;;6.71;86.58
48622;BME280;34421;48.944;9.460;2023-12-22T01:49:20;97220.25;;;6.77;86.33
48622;BME280;34421;48.944;9.460;2023-12-22T01:51:46;97215.28;;;6.87;86.46
48622;BME280;34421;48.944;9.460;2023-12-22T01:54:12;97209.13;;;6.93;86.32
48622;BME280;34421;48.944;9.460;2023-12-22T01:56:38;97206.19;;;7.01;86.08
48622;BME280;34421;48.944;9.460;2023-12-22T01:59:04;97212.25;;;7.08;86.75
48622;BME280;34421;48.944;9.460;2023-12-22T02:01:30;97214.81;;;7.15;86.63
48622;BME280;34421;48.944;9.460;2023-12-22T02:03:56;97206.88;;;7.15;85.81
48622;BME280;34421;48.944;9.460;2023-12-22T02:06:24;97208.88;;;7.20;86.31
48622;BME280;34421;48.944;9.460;2023-12-22T02:08:49;97208.44;;;7.23;85.70
48622;BME280;34421;48.944;9.460;2023-12-22T02:11:15;97204.75;;;7.24;86.29
48622;BME280;34421;48.944;9.460;2023-12-22T02:13:42;97209.44;;;7.22;85.46
48622;BME280;34421;48.944;9.460;2023-12-22T02:16:31;97202.38;;;7.16;86.13
48622;BME280;34421;48.944;9.460;2023-12-22T02:18:59;97255.66;;;7.01;84.69
48622;BME280;34421;48.944;9.460;2023-12-22T02:21:29;97250.69;;;6.86;84.12
48622;BME280;34421;48.944;9.460;2023-12-22T02:23:54;97214.75;;;6.78;85.86
48622;BME280;34421;48.944;9.460;2023-12-22T02:26:25;97219.56;;;6.88;85.66
48622;BME280;34421;48.944;9.460;2023-12-22T02:28:55;97215.22;;;6.94;85.55
48622;BME280;34421;48.944;9.460;2023-12-22T02:31:28;97229.44;;;6.99;85.18
48622;BME280;34421;48.944;9.460;2023-12-22T02:33:58;97235.53;;;7.00;84.98
48622;BME280;34421;48.944;9.460;2023-12-22T02:36:25;97243.97;;;6.90;84.68
48622;BME280;34421;48.944;9.460;2023-12-22T02:38:53;97223.06;;;6.82;84.87
48622;BME280;34421;48.944;9.460;2023-12-22T02:41:20;97214.53;;;6.80;85.09
48622;BME280;34421;48.944;9.460;2023-12-22T02:43:46;97205.28;;;6.89;85.28
48622;BME280;34421;48.944;9.460;2023-12-22T02:46:15;97196.47;;;6.95;84.83
48622;BME280;34421;48.944;9.460;2023-12-22T02:48:41;97192.38;;;6.99;84.34
48622;BME280;34421;48.944;9.460;2023-12-22T02:51:06;97192.94;;;7.01;84.12
48622;BME280;34421;48.944;9.460;2023-12-22T02:53:31;97190.75;;;6.98;83.85
48622;BME280;34421;48.944;9.460;2023-12-22T02:55:56;97202.53;;;7.02;83.38
48622;BME280;34421;48.944;9.460;2023-12-22T02:58:22;97194.59;;;7.02;83.33
48622;BME280;34421;48.944;9.460;2023-12-22T03:00:47;97205.72;;;7.11;82.81
48622;BME280;34421;48.944;9.460;2023-12-22T03:03:13;97209.44;;;7.22;82.07
48622;BME280;34421;48.944;9.460;2023-12-22T03:05:38;97213.06;;;7.27;82.62
48622;BME280;34421;48.944;9.460;2023-12-22T03:08:04;97212.97;;;7.34;82.18
48622;BME280;34421;48.944;9.460;2023-12-22T03:10:29;97189.09;;;7.41;82.20
48622;BME280;34421;48.944;9.460;2023-12-22T03:12:55;97187.81;;;7.43;82.09
48622;BME280;34421;48.944;9.460;2023-12-22T03:15:20;97178.06;;;7.44;81.90
48622;BME280;34421;48.944;9.460;2023-12-22T03:17:46;97175.78;;;7.47;81.82
48622;BME280;34421;48.944;9.460;2023-12-22T03:20:11;97176.34;;;7.49;81.64
48622;BME280;34421;48.944;9.460;2023-12-22T03:22:36;97177.75;;;7.52;81.46
48622;BME280;34421;48.944;9.460;2023-12-22T03:25:02;97168.69;;;7.60;80.97
48622;BME280;34421;48.944;9.460;2023-12-22T03:27:27;97157.22;;;7.66;81.13
48622;BME280;34421;48.944;9.460;2023-12-22T03:29:52;97166.75;;;7.67;80.20
48622;BME280;34421;48.944;9.460;2023-12-22T03:32:18;97176.09;;;7.69;80.57
48622;BME280;34421;48.944;9.460;2023-12-22T03:34:44;97192.59;;;7.71;79.63
48622;BME280;34421;48.944;9.460;2023-12-22T03:37:09;97209.09;;;7.73;79.81
48622;BME280;34421;48.944;9.460;2023-12-22T03:39:35;97209.88;;;7.74;79.73
48622;BME280;34421;48.944;9.460;2023-12-22T03:42:00;97216.00;;;7.74;79.52
48622;BME280;34421;48.944;9.460;2023-12-22T03:44:25;97219.69;;;7.73;80.08
48622;BME280;34421;48.944;9.460;2023-12-22T03:46:51;97207.00;;;7.75;79.08
48622;BME280;34421;48.944;9.460;2023-12-22T03:49:16;97197.59;;;7.80;78.55
48622;BME280;34421;48.944;9.460;2023-12-22T03:51:42;97201.50;;;7.77;78.25
48622;BME280;34421;48.944;9.460;2023-12-22T03:54:07;97191.00;;;7.82;76.57
48622;BME280;34421;48.944;9.460;2023-12-22T03:56:33;97210.16;;;7.84;76.54
48622;BME280;34421;48.944;9.460;2023-12-22T03:58:58;97211.81;;;7.85;76.46
48622;BME280;34421;48.944;9.460;2023-12-22T04:01:23;97203.97;;;7.90;76.64
48622;BME280;34421;48.944;9.460;2023-12-22T04:03:49;97195.81;;;7.92;76.74
48622;BME280;34421;48.944;9.460;2023-12-22T04:06:14;97208.47;;;7.90;76.38
48622;BME280;34421;48.944;9.460;2023-12-22T04:08:39;97209.72;;;7.87;75.82
48622;BME280;34421;48.944;9.460;2023-12-22T04:11:05;97221.94;;;7.88;75.90
48622;BME280;34421;48.944;9.460;2023-12-22T04:13:30;97204.41;;;7.87;76.02
48622;BME280;34421;48.944;9.460;2023-12-22T04:15:55;97226.81;;;7.91;75.18
48622;BME280;34421;48.944;9.460;2023-12-22T04:18:20;97245.47;;;7.96;75.32
48622;BME280;34421;48.944;9.460;2023-12-22T04:20:46;97243.06;;;7.95;76.66
48622;BME280;34421;48.944;9.460;2023-12-22T04:23:11;97254.75;;;7.87;78.31
48622;BME280;34421;48.944;9.460;2023-12-22T04:25:37;97252.56;;;7.84;79.16
48622;BME280;34421;48.944;9.460;2023-12-22T04:28:02;97242.84;;;7.78;79.86
48622;BME280;34421;48.944;9.460;2023-12-22T04:30:28;97236.84;;;7.71;79.76
48622;BME280;34421;48.944;9.460;2023-12-22T04:32:53;97246.25;;;7.67;80.09
48622;BME280;34421;48.944;9.460;2023-12-22T04:35:18;97246.69;;;7.64;80.07
48622;BME280;34421;48.944;9.460;2023-12-22T04:37:44;97241.25;;;7.59;80.06
48622;BME280;34421;48.944;9.460;2023-12-22T04:40:09;97246.25;;;7.48;79.90
48622;BME280;34421;48.944;9.460;2023-12-22T04:42:35;97282.78;;;7.40;80.75
48622;BME280;34421;48.944;9.460;2023-12-22T04:45:00;97275.28;;;7.37;79.99
48622;BME280;34421;48.944;9.460;2023-12-22T04:47:25;97281.69;;;7.29;80.64
48622;BME280;34421;48.944;9.460;2023-12-22T04:49:51;97278.06;;;7.23;81.37
48622;BME280;34421;48.944;9.460;2023-12-22T04:52:16;97284.38;;;7.22;81.85
48622;BME280;34421;48.944;9.460;2023-12-22T04:54:41;97273.16;;;7.27;82.01
48622;BME280;34421;48.944;9.460;2023-12-22T04:57:07;97262.72;;;7.32;81.81
48622;BME280;34421;48.944;9.460;2023-12-22T04:59:32;97263.44;;;7.39;81.43
48622;BME280;34421;48.944;9.460;2023-12-22T05:01:57;97256.22;;;7.46;81.23
48622;BME280;34421;48.944;9.460;2023-12-22T05:04:23;97263.63;;;7.44;80.41
48622;BME280;34421;48.944;9.460;2023-12-22T05:06:48;97265.81;;;7.47;79.87
48622;BME280;34421;48.944;9.460;2023-12-22T05:09:15;97248.09;;;7.48;79.85
48622;BME280;34421;48.944;9.460;2023-12-22T05:11:40;97257.44;;;7.50;80.17
48622;BME280;34421;48.944;9.460;2023-12-22T05:14:06;97264.50;;;7.57;79.78
48622;BME280;34421;48.944;9.460;2023-12-22T05:16:31;97262.66;;;7.57;79.47
48622;BME280;34421;48.944;9.460;2023-12-22T05:19:00;97286.84;;;7.61;79.23
48622;BME280;34421;48.944;9.460;2023-12-22T05:21:25;97282.59;;;7.60;79.70
48622;BME280;34421;48.944;9.460;2023-12-22T05:23:50;97273.03;;;7.59;79.29
48622;BME280;34421;48.944;9.460;2023-12-22T05:26:17;97281.00;;;7.59;80.10
48622;BME280;34421;48.944;9.460;2023-12-22T05:28:43;97276.88;;;7.63;79.75
48622;BME280;34421;48.944;9.460;2023-12-22T05:31:08;97287.47;;;7.63;79.38
48622;BME280;34421;48.944;9.460;2023-12-22T05:33:33;97272.38;;;7.63;79.96
48622;BME280;34421;48.944;9.460;2023-12-22T05:35:59;97286.56;;;7.69;79.27
48622;BME280;34421;48.944;9.460;2023-12-22T05:38:24;97272.28;;;7.70;79.99
48622;BME280;34421;48.944;9.460;2023-12-22T05:40:50;97286.13;;;7.72;80.04
48622;BME280;34421;48.944;9.460;2023-12-22T05:43:15;97285.31;;;7.71;79.84
48622;BME280;34421;48.944;9.460;2023-12-22T05:45:40;97294.09;;;7.72;80.07
48622;BME280;34421;48.944;9.460;2023-12-22T05:48:06;97283.31;;;7.67;80.40
48622;BME280;34421;48.944;9.460;2023-12-22T05:50:32;97321.25;;;7.24;82.87
48622;BME280;34421;48.944;9.460;2023-12-22T05:52:57;97306.63;;;6.65;87.44
48622;BME280;34421;48.944;9.460;2023-12-22T05:55:23;97278.78;;;6.24;91.51
48622;BME280;34421;48.944;9.460;2023-12-22T05:57:48;97292.72;;;5.92;93.38
48622;BME280;34421;48.944;9.460;2023-12-22T06:00:14;97279.41;;;5.74;94.54
48622;BME280;34421;48.944;9.460;2023-12-22T06:02:40;97261.28;;;5.71;96.27
48622;BME280;34421;48.944;9.460;2023-12-22T06:05:06;97277.97;;;5.65;98.04
48622;BME280;34421;48.944;9.460;2023-12-22T06:07:31;97315.16;;;5.63;98.89
48622;BME280;34421;48.944;9.460;2023-12-22T06:09:57;97296.47;;;5.71;99.42
48622;BME280;34421;48.944;9.460;2023-12-22T06:12:22;97315.72;;;5.92;99.70
48622;BME280;34421;48.944;9.460;2023-12-22T06:14:48;97313.44;;;6.02;99.94
48622;BME280;34421;48.944;9.460;2023-12-22T06:17:13;97309.34;;;6.13;100.00
48622;BME280;34421;48.944;9.460;2023-12-22T06:19:38;97319.03;;;6.26;100.00
48622;BME280;34421;48.944;9.460;2023-12-22T06:22:04;97315.88;;;6.42;100.00
48622;BME280;34421;48.944;9.460;2023-12-22T06:24:29;97313.19;;;6.55;99.76
48622;BME280;34421;48.944;9.460;2023-12-22T06:26:54;97342.03;;;6.64;99.97
48622;BME280;34421;48.944;9.460;2023-12-22T06:29:19;97363.75;;;6.72;98.95
48622;BME280;34421;48.944;9.460;2023-12-22T06:31:45;97370.63;;;6.80;98.61
48622;BME280;34421;48.944;9.460;2023-12-22T06:34:11;97373.22;;;6.87;97.81
48622;BME280;34421;48.944;9.460;2023-12-22T06:36:36;97388.03;;;6.94;97.48
48622;BME280;34421;48.944;9.460;2023-12-22T06:39:02;97382.50;;;7.02;96.35
48622;BME280;34421;48.944;9.460;2023-12-22T06:41:31;97369.97;;;7.16;95.11
48622;BME280;34421;48.944;9.460;2023-12-22T06:43:56;97378.88;;;7.22;93.27
48622;BME280;34421;48.944;9.460;2023-12-22T06:46:23;97376.56;;;7.32;91.93
48622;BME280;34421;48.944;9.460;2023-12-22T06:48:51;97386.88;;;7.40;90.23
48622;BME280;34421;48.944;9.460;2023-12-22T06:53:49;97375.50;;;7.58;88.91
48622;BME280;34421;48.944;9.460;2023-12-22T06:56:22;97379.75;;;7.66;87.28
48622;BME280;34421;48.944;9.460;2023-12-22T06:58:49;97395.38;;;7.74;86.80
48622;BME280;34421;48.944;9.460;2023-12-22T07:03:45;97400.16;;;7.84;84.79
48622;BME280;34421;48.944;9.460;2023-12-22T07:06:10;97401.72;;;7.91;84.03
48622;BME280;34421;48.944;9.460;2023-12-22T07:08:35;97395.75;;;7.96;82.76
48622;BME280;34421;48.944;9.460;2023-12-22T07:11:01;97397.75;;;8.01;82.79
48622;BME280;34421;48.944;9.460;2023-12-22T07:13:26;97397.88;;;8.06;82.06
48622;BME280;34421;48.944;9.460;2023-12-22T07:15:51;97423.81;;;8.04;80.59
48622;BME280;34421;48.944;9.460;2023-12-22T07:18:18;97423.22;;;8.02;79.55
48622;BME280;34421;48.944;9.460;2023-12-22T07:20:43;97435.00;;;8.06;79.39
48622;BME280;34421;48.944;9.460;2023-12-22T07:23:10;97422.56;;;8.06;78.26
48622;BME280;34421;48.944;9.460;2023-12-22T07:25:39;97428.69;;;8.07;78.00
48622;BME280;34421;48.944;9.460;2023-12-22T07:28:05;97437.00;;;8.10;76.86
48622;BME280;34421;48.944;9.460;2023-12-22T07:30:30;97432.06;;;8.14;77.51
48622;BME280;34421;48.944;9.460;2023-12-22T07:32:55;97443.63;;;8.19;76.70
48622;BME280;34421;48.944;9.460;2023-12-22T07:35:21;97428.91;;;8.23;77.60
48622;BME280;34421;48.944;9.460;2023-12-22T07:37:46;97421.34;;;8.27;77.02
48622;BME280;34421;48.944;9.460;2023-12-22T07:40:12;97437.59;;;8.31;77.12
48622;BME280;34421;48.944;9.460;2023-12-22T07:42:37;97440.84;;;8.33;77.17
48622;BME280;34421;48.944;9.460;2023-12-22T07:45:04;97439.22;;;8.32;76.73
48622;BME280;34421;48.944;9.460;2023-12-22T07:47:30;97443.72;;;8.31;77.67
48622;BME280;34421;48.944;9.460;2023-12-22T07:49:55;97460.88;;;8.29;76.71
48622;BME280;34421;48.944;9.460;2023-12-22T07:52:20;97451.06;;;8.29;76.74
48622;BME280;34421;48.944;9.460;2023-12-22T07:54:46;97475.53;;;8.31;77.04
48622;BME280;34421;48.944;9.460;2023-12-22T07:57:12;97449.78;;;8.38;77.47
48622;BME280;34421;48.944;9.460;2023-12-22T07:59:37;97449.34;;;8.41;77.00
48622;BME280;34421;48.944;9.460;2023-12-22T08:02:03;97462.59;;;8.41;76.52
48622;BME280;34421;48.944;9.460;2023-12-22T08:04:28;97456.03;;;8.44;76.93
48622;BME280;34421;48.944;9.460;2023-12-22T08:06:53;97452.00;;;8.41;77.03
48622;BME280;34421;48.944;9.460;2023-12-22T08:09:19;97471.16;;;8.43;77.11
48622;BME280;34421;48.944;9.460;2023-12-22T08:11:45;97473.59;;;8.45;77.62
48622;BME280;34421;48.944;9.460;2023-12-22T08:14:12;97495.03;;;8.43;77.01
48622;BME280;34421;48.944;9.460;2023-12-22T08:16:37;97484.66;;;8.42;76.78
48622;BME280;34421;48.944;9.460;2023-12-22T08:19:02;97501.13;;;8.44;76.51
48622;BME280;34421;48.944;9.460;2023-12-22T08:21:28;97503.44;;;8.40;77.64
48622;BME280;34421;48.944;9.460;2023-12-22T08:23:53;97492.34;;;8.25;80.20
48622;BME280;34421;48.944;9.460;2023-12-22T08:26:19;97506.91;;;8.16;81.73
48622;BME280;34421;48.944;9.460;2023-12-22T08:28:45;97509.66;;;8.03;83.50
48622;BME280;34421;48.944;9.460;2023-12-22T08:31:10;97495.13;;;7.87;85.97
48622;BME280;34421;48.944;9.460;2023-12-22T08:33:37;97487.00;;;7.82;88.07
48622;BME280;34421;48.944;9.460;2023-12-22T08:36:06;97492.53;;;7.80;87.95
48622;BME280;34421;48.944;9.460;2023-12-22T08:38:31;97482.56;;;7.75;88.96
48622;BME280;34421;48.944;9.460;2023-12-22T08:40:56;97478.75;;;7.71;88.48
48622;BME280;34421;48.944;9.460;2023-12-22T08:43:22;97479.34;;;7.73;88.00
48622;BME280;34421;48.944;9.460;2023-12-22T08:45:47;97478.03;;;7.83;88.58
48622;BME280;34421;48.944;9.460;2023-12-22T08:48:12;97484.53;;;7.87;87.67
48622;BME280;34421;48.944;9.460;2023-12-22T08:50:38;97490.38;;;7.95;87.55
48622;BME280;34421;48.944;9.460;2023-12-22T08:53:03;97503.19;;;7.98;87.50
48622;BME280;34421;48.944;9.460;2023-12-22T08:55:28;97500.53;;;7.98;87.44
48622;BME280;34421;48.944;9.460;2023-12-22T08:57:54;97508.06;;;8.02;87.41
48622;BME280;34421;48.944;9.460;2023-12-22T09:00:19;97501.88;;;8.08;87.10
48622;BME280;34421;48.944;9.460;2023-12-22T09:02:44;97503.91;;;8.06;86.89
48622;BME280;34421;48.944;9.460;2023-12-22T09:05:10;97494.72;;;8.08;87.29
48622;BME280;34421;48.944;9.460;2023-12-22T09:07:35;97489.59;;;8.13;87.20
48622;BME280;34421;48.944;9.460;2023-12-22T09:10:00;97488.34;;;8.16;87.14
48622;BME280;34421;48.944;9.460;2023-12-22T09:12:26;97488.34;;;8.16;87.10
48622;BME280;34421;48.944;9.460;2023-12-22T09:14:51;97500.56;;;8.17;86.72
48622;BME280;34421;48.944;9.460;2023-12-22T09:17:16;97489.97;;;8.17;86.19
48622;BME280;34421;48.944;9.460;2023-12-22T09:19:42;97496.50;;;8.14;86.45
48622;BME280;34421;48.944;9.460;2023-12-22T09:22:08;97477.41;;;8.06;86.89
48622;BME280;34421;48.944;9.460;2023-12-22T09:24:33;97489.28;;;8.03;87.52
48622;BME280;34421;48.944;9.460;2023-12-22T09:26:59;97490.91;;;8.04;86.88
48622;BME280;34421;48.944;9.460;2023-12-22T09:29:31;97503.06;;;8.12;86.98
48622;BME280;34421;48.944;9.460;2023-12-22T09:32:00;97510.00;;;8.13;86.79
48622;BME280;34421;48.944;9.460;2023-12-22T09:34:26;97533.00;;;8.19;85.43
48622;BME280;34421;48.944;9.460;2023-12-22T09:36:53;97507.22;;;8.26;85.19
48622;BME280;34421;48.944;9.460;2023-12-22T09:39:18;97528.06;;;8.22;84.22
48622;BME280;34421;48.944;9.460;2023-12-22T09:41:48;97544.13;;;8.28;83.78
48622;BME280;34421;48.944;9.460;2023-12-22T09:44:16;97540.38;;;8.35;82.65
48622;BME280;34421;48.944;9.460;2023-12-22T09:46:43;97530.75;;;8.41;82.74
48622;BME280;34421;48.944;9.460;2023-12-22T09:49:08;97522.97;;;8.46;83.22
48622;BME280;34421;48.944;9.460;2023-12-22T09:51:34;97532.50;;;8.54;82.55
48622;BME280;34421;48.944;9.460;2023-12-22T09:54:02;97527.75;;;8.56;81.96
48622;BME280;34421;48.944;9.460;2023-12-22T09:56:29;97517.31;;;8.61;81.38
48622;BME280;34421;48.944;9.460;2023-12-22T09:58:55;97506.25;;;8.64;81.10
48622;BME280;34421;48.944;9.460;2023-12-22T10:01:21;97503.31;;;8.72;80.05
48622;BME280;34421;48.944;9.460;2023-12-22T10:03:48;97506.69;;;8.79;80.01
48622;BME280;34421;48.944;9.460;2023-12-22T10:06:13;97514.44;;;8.81;78.42
48622;BME280;34421;48.944;9.460;2023-12-22T10:08:39;97501.97;;;8.81;78.07
48622;BME280;34421;48.944;9.460;2023-12-22T10:11:05;97494.97;;;8.87;78.77
48622;BME280;34421;48.944;9.460;2023-12-22T10:13:33;97483.16;;;9.01;78.21
48622;BME280;34421;48.944;9.460;2023-12-22T10:16:00;97495.53;;;9.07;76.95
48622;BME280;34421;48.944;9.460;2023-12-22T10:18:25;97482.59;;;9.11;75.96
48622;BME280;34421;48.944;9.460;2023-12-22T10:20:51;97476.28;;;9.24;76.44
48622;BME280;34421;48.944;9.460;2023-12-22T10:23:17;97470.31;;;9.28;76.65
48622;BME280;34421;48.944;9.460;2023-12-22T10:25:42;97470.88;;;9.30;75.41
48622;BME280;34421;48.944;9.460;2023-12-22T10:28:10;97468.66;;;9.27;75.08
48622;BME280;34421;48.944;9.460;2023-12-22T10:30:36;97464.91;;;9.35;74.64
48622;BME280;34421;48.944;9.460;2023-12-22T10:33:04;97453.13;;;9.43;74.37
48622;BME280;34421;48.944;9.460;2023-12-22T10:35:29;97458.13;;;9.51;74.45
48622;BME280;34421;48.944;9.460;2023-12-22T10:37:55;97472.00;;;9.53;73.58
48622;BME280;34421;48.944;9.460;2023-12-22T10:40:21;97464.03;;;9.53;73.55
48622;BME280;34421;48.944;9.460;2023-12-22T10:42:48;97457.31;;;9.50;73.53
48622;BME280;34421;48.944;9.460;2023-12-22T10:45:13;97442.41;;;9.49;73.83
48622;BME280;34421;48.944;9.460;2023-12-22T10:47:40;97446.56;;;9.57;72.42
48622;BME280;34421;48.944;9.460;2023-12-22T10:50:06;97433.75;;;9.54;71.94
48622;BME280;34421;48.944;9.460;2023-12-22T10:52:31;97434.66;;;9.48;72.05
48622;BME280;34421;48.944;9.460;2023-12-22T10:54:57;97430.63;;;9.57;72.55
48622;BME280;34421;48.944;9.460;2023-12-22T10:57:23;97427.16;;;9.56;73.23
48622;BME280;34421;48.944;9.460;2023-12-22T10:59:49;97425.06;;;9.47;73.13
48622;BME280;34421;48.944;9.460;2023-12-22T11:02:17;97428.31;;;9.49;73.04
48622;BME280;34421;48.944;9.460;2023-12-22T11:05:03;97424.84;;;9.48;73.60
48622;BME280;34421;48.944;9.460;2023-12-22T11:07:33;97416.97;;;9.42;74.07
48622;BME280;34421;48.944;9.460;2023-12-22T11:10:05;97415.38;;;9.41;73.29
48622;BME280;34421;48.944;9.460;2023-12-22T11:12:37;97421.69;;;9.40;73.83
48622;BME280;34421;48.944;9.460;2023-12-22T11:15:04;97420.31;;;9.37;74.23
48622;BME280;34421;48.944;9.460;2023-12-22T11:17:33;97402.75;;;9.36;75.00
48622;BME280;34421;48.944;9.460;2023-12-22T11:19:59;97391.44;;;9.41;75.54
48622;BME280;34421;48.944;9.460;2023-12-22T11:22:25;97395.25;;;9.45;75.04
48622;BME280;34421;48.944;9.460;2023-12-22T11:24:51;97374.34;;;9.48;75.46
48622;BME280;34421;48.944;9.460;2023-12-22T11:27:17;97386.25;;;9.46;75.78
48622;BME280;34421;48.944;9.460;2023-12-22T11:29:46;97397.91;;;9.45;76.12
48622;BME280;34421;48.944;9.460;2023-12-22T11:32:15;97386.38;;;9.51;77.12
48622;BME280;34421;48.944;9.460;2023-12-22T11:34:47;97383.03;;;9.55;77.39
48622;BME280;34421;48.944;9.460;2023-12-22T11:37:14;97362.72;;;9.61;76.83
48622;BME280;34421;48.944;9.460;2023-12-22T11:39:41;97369.28;;;9.58;77.20
48622;BME280;34421;48.944;9.460;2023-12-22T11:42:08;97363.50;;;9.62;76.64
48622;BME280;34421;48.944;9.460;2023-12-22T11:44:35;97345.72;;;9.62;76.83
48622;BME280;34421;48.944;9.460;2023-12-22T11:47:08;97352.75;;;9.56;77.42
48622;BME280;34421;48.944;9.460;2023-12-22T11:49:35;97339.00;;;9.59;77.77
48622;BME280;34421;48.944;9.460;2023-12-22T11:52:14;97343.84;;;9.63;77.54
48622;BME280;34421;48.944;9.460;2023-12-22T11:54:47;97333.94;;;9.70;77.30
48622;BME280;34421;48.944;9.460;2023-12-22T11:59:54;97326.66;;;9.65;76.87
48622;BME280;34421;48.944;9.460;2023-12-22T12:02:21;97322.25;;;9.59;76.51
48622;BME280;34421;48.944;9.460;2023-12-22T12:04:57;97317.75;;;9.59;76.87
48622;BME280;34421;48.944;9.460;2023-12-22T12:07:46;97315.81;;;9.55;77.74
48622;BME280;34421;48.944;9.460;2023-12-22T12:15:33;97311.41;;;9.37;76.55
48622;BME280;34421;48.944;9.460;2023-12-22T12:17:59;97291.97;;;9.36;77.97
48622;BME280;34421;48.944;9.460;2023-12-22T12:20:24;97298.22;;;9.30;76.93
48622;BME280;34421;48.944;9.460;2023-12-22T12:22:50;97284.13;;;9.30;77.14
48622;BME280;34421;48.944;9.460;2023-12-22T12:25:15;97293.28;;;9.34;77.01
48622;BME280;34421;48.944;9.460;2023-12-22T12:27:41;97293.84;;;9.36;77.69
48622;BME280;34421;48.944;9.460;2023-12-22T12:30:13;97281.34;;;9.36;77.56
48622;BME280;34421;48.944;9.460;2023-12-22T12:32:42;97286.66;;;9.36;77.23
48622;BME280;34421;48.944;9.460;2023-12-22T12:35:10;97284.47;;;9.33;76.98
48622;BME280;34421;48.944;9.460;2023-12-22T12:37:35;97283.47;;;9.34;77.14
48622;BME280;34421;48.944;9.460;2023-12-22T12:40:02;97279.75;;;9.35;77.03
48622;BME280;34421;48.944;9.460;2023-12-22T12:42:30;97273.28;;;9.31;77.71
48622;BME280;34421;48.944;9.460;2023-12-22T12:44:58;97276.41;;;9.28;77.60
48622;BME280;34421;48.944;9.460;2023-12-22T12:47:23;97263.94;;;9.29;78.43
48622;BME280;34421;48.944;9.460;2023-12-22T12:49:59;97276.16;;;9.30;78.03
48622;BME280;34421;48.944;9.460;2023-12-22T12:52:25;97253.88;;;9.31;79.44
48622;BME280;34421;48.944;9.460;2023-12-22T12:54:51;97273.75;;;9.28;79.01
48622;BME280;34421;48.944;9.460;2023-12-22T12:57:17;97257.22;;;9.26;79.97
48622;BME280;34421;48.944;9.460;2023-12-22T12:59:49;97253.53;;;9.27;80.03
48622;BME280;34421;48.944;9.460;2023-12-22T13:02:18;97255.38;;;9.27;79.63
48622;BME280;34421;48.944;9.460;2023-12-22T13:04:44;97260.47;;;9.28;80.05
48622;BME280;34421;48.944;9.460;2023-12-22T13:07:10;97265.78;;;9.28;80.14
48622;BME280;34421;48.944;9.460;2023-12-22T13:09:38;97252.03;;;9.31;80.78
48622;BME280;34421;48.944;9.460;2023-12-22T13:12:03;97269.59;;;9.32;79.39
48622;BME280;34421;48.944;9.460;2023-12-22T13:14:29;97258.84;;;9.39;80.13
48622;BME280;34421;48.944;9.460;2023-12-22T13:16:56;97260.81;;;9.44;79.90